Private Wetterstation Sandau
Wetterdaten: Montag, 11.06.2012
Datum Zeit Temp. A. Feuchte A. Luftdruck Regen Wind Richtung Richtung Taupunkt Windchill
11.06.2012 00:01 15,9 C 62 % 1008,7 hPa 0,0 l/m 0,0 km/h (0 Bft) NW 315 8,6 C 15,9 C
11.06.2012 00:06 15,8 C 62 % 1008,7 hPa 0,0 l/m 1,1 km/h (1 Bft) W-NW 292 8,5 C 15,8 C
11.06.2012 00:11 15,8 C 62 % 1008,7 hPa 0,0 l/m 2,2 km/h (1 Bft) NO 45 8,5 C 15,8 C
11.06.2012 00:16 15,6 C 62 % 1008,6 hPa 0,0 l/m 0,0 km/h (0 Bft) NO 45 8,3 C 15,6 C
11.06.2012 00:21 15,4 C 62 % 1008,7 hPa 0,0 l/m 0,0 km/h (0 Bft) NO 45 8,2 C 15,4 C
11.06.2012 00:26 15,4 C 63 % 1008,7 hPa 0,0 l/m 0,0 km/h (0 Bft) O 90 8,4 C 15,4 C
11.06.2012 00:31 15,4 C 62 % 1008,7 hPa 0,0 l/m 0,0 km/h (0 Bft) O-SO 112 8,2 C 15,4 C
11.06.2012 00:36 15,3 C 62 % 1008,6 hPa 0,0 l/m 2,2 km/h (1 Bft) O-NO 67 8,1 C 15,3 C
11.06.2012 00:41 15,2 C 62 % 1008,6 hPa 0,0 l/m 2,5 km/h (1 Bft) O-NO 67 8,0 C 15,2 C
11.06.2012 00:46 14,9 C 63 % 1008,5 hPa 0,0 l/m 0,0 km/h (0 Bft) O 90 7,9 C 14,9 C
11.06.2012 00:51 14,9 C 63 % 1008,5 hPa 0,0 l/m 0,0 km/h (0 Bft) O-NO 67 7,9 C 14,9 C
11.06.2012 00:56 14,9 C 63 % 1008,5 hPa 0,0 l/m 0,0 km/h (0 Bft) O-NO 67 7,9 C 14,9 C
11.06.2012 01:01 14,9 C 64 % 1008,3 hPa 0,0 l/m 0,0 km/h (0 Bft) N-NW 337 8,2 C 14,9 C
11.06.2012 01:06 14,8 C 64 % 1008,3 hPa 0,0 l/m 1,8 km/h (1 Bft) N-NO 22 8,1 C 14,8 C
11.06.2012 01:11 14,6 C 64 % 1008,1 hPa 0,0 l/m 0,0 km/h (0 Bft) NO 45 7,9 C 14,6 C
11.06.2012 01:16 14,4 C 64 % 1008,2 hPa 0,0 l/m 0,0 km/h (0 Bft) NO 45 7,7 C 14,4 C
11.06.2012 01:21 14,4 C 65 % 1008,1 hPa 0,0 l/m 1,1 km/h (1 Bft) O-NO 67 7,9 C 14,4 C
11.06.2012 01:26 14,3 C 65 % 1008,1 hPa 0,0 l/m 0,0 km/h (0 Bft) O-NO 67 7,8 C 14,3 C
11.06.2012 01:31 14,3 C 65 % 1008,0 hPa 0,0 l/m 1,1 km/h (1 Bft) SO 135 7,8 C 14,3 C
11.06.2012 01:36 14,4 C 65 % 1008,0 hPa 0,0 l/m 1,4 km/h (1 Bft) S-SO 157 7,9 C 14,4 C
11.06.2012 01:41 14,6 C 65 % 1008,0 hPa 0,0 l/m 0,0 km/h (0 Bft) SO 135 8,1 C 14,6 C
11.06.2012 01:46 14,6 C 65 % 1007,9 hPa 0,0 l/m 0,0 km/h (0 Bft) S-SO 157 8,1 C 14,6 C
11.06.2012 01:51 14,6 C 65 % 1007,9 hPa 0,0 l/m 0,0 km/h (0 Bft) S-SO 157 8,1 C 14,6 C
11.06.2012 01:56 14,7 C 65 % 1007,8 hPa 0,0 l/m 0,0 km/h (0 Bft) SO 135 8,2 C 14,7 C
11.06.2012 02:01 14,6 C 65 % 1007,8 hPa 0,0 l/m 0,0 km/h (0 Bft) S-SO 157 8,1 C 14,6 C
11.06.2012 02:06 14,6 C 65 % 1007,8 hPa 0,0 l/m 0,0 km/h (0 Bft) SO 135 8,1 C 14,6 C
11.06.2012 02:11 14,7 C 65 % 1007,7 hPa 0,0 l/m 0,0 km/h (0 Bft) O-SO 112 8,2 C 14,7 C
11.06.2012 02:16 14,6 C 65 % 1007,6 hPa 0,0 l/m 0,0 km/h (0 Bft) O-SO 112 8,1 C 14,6 C
11.06.2012 02:21 14,6 C 65 % 1007,7 hPa 0,0 l/m 0,0 km/h (0 Bft) O-SO 112 8,1 C 14,6 C
11.06.2012 02:26 14,6 C 65 % 1007,7 hPa 0,0 l/m 0,0 km/h (0 Bft) O-SO 112 8,1 C 14,6 C
11.06.2012 02:31 14,6 C 65 % 1007,6 hPa 0,0 l/m 0,0 km/h (0 Bft) O-SO 112 8,1 C 14,6 C
11.06.2012 02:36 14,6 C 65 % 1007,7 hPa 0,0 l/m 0,0 km/h (0 Bft) O-SO 112 8,1 C 14,6 C
11.06.2012 02:41 14,4 C 66 % 1007,7 hPa 0,0 l/m 0,0 km/h (0 Bft) O-SO 112 8,1 C 14,4 C
11.06.2012 02:46 14,2 C 66 % 1007,7 hPa 0,0 l/m 0,0 km/h (0 Bft) O-SO 112 7,9 C 14,2 C
11.06.2012 02:51 14,1 C 66 % 1007,7 hPa 0,0 l/m 0,0 km/h (0 Bft) O-SO 112 7,8 C 14,1 C
11.06.2012 02:56 13,9 C 67 % 1007,7 hPa 0,0 l/m 0,0 km/h (0 Bft) SO 135 7,9 C 13,9 C
11.06.2012 03:01 13,9 C 67 % 1007,7 hPa 0,0 l/m 0,0 km/h (0 Bft) S-SO 157 7,9 C 13,9 C
11.06.2012 03:06 13,9 C 67 % 1007,7 hPa 0,0 l/m 0,0 km/h (0 Bft) S 180 7,9 C 13,9 C
11.06.2012 03:11 13,9 C 67 % 1007,7 hPa 0,0 l/m 0,0 km/h (0 Bft) S 180 7,9 C 13,9 C
11.06.2012 03:16 13,9 C 67 % 1007,8 hPa 0,0 l/m 0,0 km/h (0 Bft) SW 225 7,9 C 13,9 C
11.06.2012 03:21 13,9 C 67 % 1007,8 hPa 0,0 l/m 0,0 km/h (0 Bft) SW 225 7,9 C 13,9 C
11.06.2012 03:26 13,8 C 67 % 1007,7 hPa 0,0 l/m 2,5 km/h (1 Bft) W-NW 292 7,8 C 13,8 C
11.06.2012 03:31 13,8 C 67 % 1007,7 hPa 0,0 l/m 0,0 km/h (0 Bft) W-NW 292 7,8 C 13,8 C
11.06.2012 03:36 13,6 C 68 % 1007,6 hPa 0,0 l/m 0,0 km/h (0 Bft) W 270 7,8 C 13,6 C
11.06.2012 03:41 13,5 C 68 % 1007,6 hPa 0,0 l/m 0,0 km/h (0 Bft) W-NW 292 7,7 C 13,5 C
11.06.2012 03:46 13,2 C 69 % 1007,6 hPa 0,0 l/m 1,4 km/h (1 Bft) NW 315 7,6 C 13,2 C
11.06.2012 03:51 12,9 C 70 % 1007,5 hPa 0,0 l/m 0,0 km/h (0 Bft) NW 315 7,6 C 12,9 C
11.06.2012 03:56 12,6 C 71 % 1007,5 hPa 0,0 l/m 0,0 km/h (0 Bft) NW 315 7,5 C 12,6 C
11.06.2012 04:01 12,4 C 71 % 1007,4 hPa 0,0 l/m 0,0 km/h (0 Bft) NW 315 7,3 C 12,4 C
11.06.2012 04:06 12,4 C 72 % 1007,4 hPa 0,0 l/m 0,0 km/h (0 Bft) NW 315 7,5 C 12,4 C
11.06.2012 04:11 12,4 C 72 % 1007,4 hPa 0,0 l/m 0,0 km/h (0 Bft) NW 315 7,5 C 12,4 C
11.06.2012 04:16 12,3 C 72 % 1007,4 hPa 0,0 l/m 0,0 km/h (0 Bft) NW 315 7,4 C 12,3 C
11.06.2012 04:21 12,1 C 72 % 1007,3 hPa 0,0 l/m 0,0 km/h (0 Bft) NW 315 7,2 C 12,1 C
11.06.2012 04:26 11,9 C 73 % 1007,2 hPa 0,0 l/m 0,0 km/h (0 Bft) NW 315 7,2 C 11,9 C
11.06.2012 04:31 11,9 C 73 % 1007,2 hPa 0,0 l/m 0,0 km/h (0 Bft) NW 315 7,2 C 11,9 C
11.06.2012 04:36 11,9 C 74 % 1007,2 hPa 0,0 l/m 0,0 km/h (0 Bft) NW 315 7,4 C 11,9 C
11.06.2012 04:41 11,9 C 74 % 1007,2 hPa 0,0 l/m 0,0 km/h (0 Bft) NW 315 7,4 C 11,9 C
11.06.2012 04:46 12,1 C 74 % 1007,3 hPa 0,0 l/m 0,0 km/h (0 Bft) W-NW 292 7,6 C 12,1 C
11.06.2012 04:51 12,2 C 73 % 1007,3 hPa 0,0 l/m 0,0 km/h (0 Bft) W-NW 292 7,5 C 12,2 C
11.06.2012 04:56 12,4 C 73 % 1007,3 hPa 0,0 l/m 0,0 km/h (0 Bft) W 270 7,7 C 12,4 C
11.06.2012 05:01 12,4 C 73 % 1007,4 hPa 0,0 l/m 0,0 km/h (0 Bft) W 270 7,7 C 12,4 C
11.06.2012 05:06 12,4 C 73 % 1007,3 hPa 0,0 l/m 0,0 km/h (0 Bft) W 270 7,7 C 12,4 C
11.06.2012 05:11 12,4 C 73 % 1007,3 hPa 0,0 l/m 0,0 km/h (0 Bft) W 270 7,7 C 12,4 C
11.06.2012 05:16 12,4 C 73 % 1007,3 hPa 0,0 l/m 0,0 km/h (0 Bft) W 270 7,7 C 12,4 C
11.06.2012 05:21 12,4 C 73 % 1007,3 hPa 0,0 l/m 0,0 km/h (0 Bft) W 270 7,7 C 12,4 C
11.06.2012 05:26 12,4 C 73 % 1007,3 hPa 0,0 l/m 0,0 km/h (0 Bft) W 270 7,7 C 12,4 C
11.06.2012 05:31 12,4 C 73 % 1007,3 hPa 0,0 l/m 0,0 km/h (0 Bft) W 270 7,7 C 12,4 C
11.06.2012 05:36 12,4 C 73 % 1007,3 hPa 0,0 l/m 0,0 km/h (0 Bft) W 270 7,7 C 12,4 C
11.06.2012 05:41 12,4 C 74 % 1007,3 hPa 0,0 l/m 0,0 km/h (0 Bft) W 270 7,9 C 12,4 C
11.06.2012 05:46 12,4 C 74 % 1007,2 hPa 0,0 l/m 0,0 km/h (0 Bft) NW 315 7,9 C 12,4 C
11.06.2012 05:51 12,6 C 75 % 1007,2 hPa 0,0 l/m 0,0 km/h (0 Bft) O-NO 67 8,3 C 12,6 C
11.06.2012 05:56 12,9 C 75 % 1007,3 hPa 0,0 l/m 0,0 km/h (0 Bft) O-NO 67 8,6 C 12,9 C
11.06.2012 06:01 13,0 C 74 % 1007,3 hPa 0,0 l/m 1,4 km/h (1 Bft) N-NO 22 8,5 C 13,0 C
11.06.2012 06:06 13,1 C 73 % 1007,3 hPa 0,0 l/m 1,1 km/h (1 Bft) N-NW 337 8,4 C 13,1 C
11.06.2012 06:11 12,9 C 72 % 1007,3 hPa 0,0 l/m 0,0 km/h (0 Bft) N 360 8,0 C 12,9 C
11.06.2012 06:16 12,8 C 73 % 1007,3 hPa 0,0 l/m 0,0 km/h (0 Bft) N-NO 22 8,1 C 12,8 C
11.06.2012 06:21 12,8 C 75 % 1007,1 hPa 0,0 l/m 0,0 km/h (0 Bft) NO 45 8,5 C 12,8 C
11.06.2012 06:26 13,1 C 75 % 1007,3 hPa 0,0 l/m 0,0 km/h (0 Bft) O 90 8,8 C 13,1 C
11.06.2012 06:31 13,5 C 75 % 1007,1 hPa 0,0 l/m 2,9 km/h (1 Bft) O 90 9,2 C 13,5 C
11.06.2012 06:36 13,9 C 74 % 1007,3 hPa 0,0 l/m 2,2 km/h (1 Bft) O-NO 67 9,3 C 13,9 C
11.06.2012 06:41 14,3 C 72 % 1007,2 hPa 0,0 l/m 0,0 km/h (0 Bft) O-NO 67 9,3 C 14,3 C
11.06.2012 06:46 14,5 C 71 % 1007,1 hPa 0,0 l/m 1,8 km/h (1 Bft) O 90 9,3 C 14,5 C
11.06.2012 06:51 14,6 C 71 % 1007,0 hPa 0,0 l/m 1,4 km/h (1 Bft) O-NO 67 9,4 C 14,6 C
11.06.2012 06:56 14,7 C 71 % 1007,0 hPa 0,0 l/m 2,5 km/h (1 Bft) O 90 9,5 C 14,7 C
11.06.2012 07:01 14,9 C 71 % 1007,0 hPa 0,0 l/m 0,0 km/h (0 Bft) O-NO 67 9,7 C 14,9 C
11.06.2012 07:06 15,0 C 70 % 1007,1 hPa 0,0 l/m 3,2 km/h (1 Bft) O-SO 112 9,6 C 15,0 C
11.06.2012 07:11 15,3 C 70 % 1007,2 hPa 0,0 l/m 1,8 km/h (1 Bft) O 90 9,9 C 15,3 C
11.06.2012 07:16 15,6 C 70 % 1007,1 hPa 0,0 l/m 2,2 km/h (1 Bft) O-NO 67 10,1 C 15,6 C
11.06.2012 07:21 15,8 C 69 % 1007,0 hPa 0,0 l/m 2,2 km/h (1 Bft) O-NO 67 10,1 C 15,8 C
11.06.2012 07:26 15,9 C 69 % 1007,0 hPa 0,0 l/m 0,0 km/h (0 Bft) O-NO 67 10,2 C 15,9 C
11.06.2012 07:31 16,1 C 69 % 1007,0 hPa 0,0 l/m 2,2 km/h (1 Bft) O-NO 67 10,4 C 16,1 C
11.06.2012 07:36 16,2 C 68 % 1007,1 hPa 0,0 l/m 4,0 km/h (1 Bft) O 90 10,3 C 16,2 C
11.06.2012 07:41 16,3 C 68 % 1006,9 hPa 0,0 l/m 4,7 km/h (1 Bft) O-NO 67 10,4 C 16,3 C
11.06.2012 07:46 16,4 C 67 % 1007,0 hPa 0,0 l/m 0,0 km/h (0 Bft) O-NO 67 10,3 C 16,4 C
11.06.2012 07:51 16,4 C 67 % 1006,9 hPa 0,0 l/m 2,5 km/h (1 Bft) O-NO 67 10,3 C 16,4 C
11.06.2012 07:56 16,6 C 67 % 1006,9 hPa 0,0 l/m 2,5 km/h (1 Bft) NO 45 10,4 C 16,6 C
11.06.2012 08:01 16,8 C 67 % 1006,9 hPa 0,0 l/m 2,5 km/h (1 Bft) O 90 10,6 C 16,8 C
11.06.2012 08:06 16,9 C 66 % 1006,9 hPa 0,0 l/m 0,0 km/h (0 Bft) O-SO 112 10,5 C 16,9 C
11.06.2012 08:11 17,3 C 66 % 1006,9 hPa 0,0 l/m 0,0 km/h (0 Bft) O-NO 67 10,9 C 17,3 C
11.06.2012 08:16 17,6 C 65 % 1006,9 hPa 0,0 l/m 1,4 km/h (1 Bft) O 90 10,9 C 17,6 C
11.06.2012 08:21 17,8 C 64 % 1006,9 hPa 0,0 l/m 4,3 km/h (1 Bft) O-SO 112 10,9 C 17,8 C
11.06.2012 08:26 17,9 C 63 % 1006,9 hPa 0,0 l/m 0,0 km/h (0 Bft) O 90 10,8 C 17,9 C
11.06.2012 08:31 17,9 C 63 % 1006,9 hPa 0,0 l/m 4,0 km/h (1 Bft) O-SO 112 10,8 C 17,9 C
11.06.2012 08:36 18,1 C 62 % 1006,9 hPa 0,0 l/m 1,4 km/h (1 Bft) NO 45 10,7 C 18,1 C
11.06.2012 08:41 18,3 C 61 % 1006,9 hPa 0,0 l/m 4,0 km/h (1 Bft) O-SO 112 10,6 C 18,3 C
11.06.2012 08:46 18,4 C 60 % 1006,7 hPa 0,0 l/m 3,2 km/h (1 Bft) O-SO 112 10,5 C 18,4 C
11.06.2012 08:51 18,7 C 60 % 1006,8 hPa 0,0 l/m 2,9 km/h (1 Bft) SO 135 10,8 C 18,7 C
11.06.2012 08:56 18,9 C 59 % 1006,6 hPa 0,0 l/m 3,6 km/h (1 Bft) SO 135 10,7 C 18,9 C
11.06.2012 09:01 19,2 C 59 % 1006,6 hPa 0,0 l/m 1,1 km/h (1 Bft) S 180 11,0 C 19,2 C
11.06.2012 09:06 19,4 C 58 % 1006,6 hPa 0,0 l/m 0,0 km/h (0 Bft) O-SO 112 10,9 C 19,4 C
11.06.2012 09:11 19,6 C 57 % 1006,7 hPa 0,0 l/m 0,0 km/h (0 Bft) O-NO 67 10,8 C 19,6 C
11.06.2012 09:16 19,6 C 57 % 1006,7 hPa 0,0 l/m 3,6 km/h (1 Bft) O-NO 67 10,8 C 19,6 C
11.06.2012 09:21 19,8 C 56 % 1006,6 hPa 0,0 l/m 2,2 km/h (1 Bft) W-NW 292 10,8 C 19,8 C
11.06.2012 09:26 19,9 C 57 % 1006,6 hPa 0,0 l/m 2,2 km/h (1 Bft) S-SO 157 11,1 C 19,9 C
11.06.2012 09:31 20,0 C 55 % 1006,6 hPa 0,0 l/m 3,2 km/h (1 Bft) O 90 10,7 C 20,0 C
11.06.2012 09:36 20,1 C 53 % 1006,7 hPa 0,0 l/m 1,4 km/h (1 Bft) O-SO 112 10,2 C 20,1 C
11.06.2012 09:41 20,1 C 53 % 1006,7 hPa 0,0 l/m 1,1 km/h (1 Bft) O-SO 112 10,2 C 20,1 C
11.06.2012 09:46 20,3 C 53 % 1006,5 hPa 0,0 l/m 0,0 km/h (0 Bft) O-SO 112 10,4 C 20,3 C
11.06.2012 09:51 20,3 C 52 % 1006,7 hPa 0,0 l/m 7,2 km/h (2 Bft) O 90 10,1 C 20,3 C
11.06.2012 09:56 20,1 C 52 % 1006,6 hPa 0,0 l/m 4,7 km/h (1 Bft) O-NO 67 9,9 C 20,1 C
11.06.2012 10:01 20,1 C 53 % 1006,5 hPa 0,0 l/m 3,6 km/h (1 Bft) O-SO 112 10,2 C 20,1 C
11.06.2012 10:06 20,2 C 53 % 1006,4 hPa 0,0 l/m 5,4 km/h (1 Bft) SO 135 10,3 C 20,2 C
11.06.2012 10:11 20,4 C 53 % 1006,5 hPa 0,0 l/m 1,4 km/h (1 Bft) SW 225 10,5 C 20,4 C
11.06.2012 10:16 20,6 C 53 % 1006,6 hPa 0,0 l/m 4,3 km/h (1 Bft) S-SO 157 10,7 C 20,6 C
11.06.2012 10:21 20,8 C 53 % 1006,5 hPa 0,0 l/m 0,0 km/h (0 Bft) W-NW 292 10,9 C 20,8 C
11.06.2012 10:26 21,1 C 52 % 1006,5 hPa 0,0 l/m 2,5 km/h (1 Bft) SO 135 10,9 C 21,1 C
11.06.2012 10:31 21,1 C 51 % 1006,5 hPa 0,0 l/m 6,5 km/h (2 Bft) S 180 10,6 C 21,1 C
11.06.2012 10:36 21,2 C 51 % 1006,4 hPa 0,0 l/m 0,0 km/h (0 Bft) S 180 10,7 C 21,2 C
11.06.2012 10:41 21,2 C 51 % 1006,4 hPa 0,0 l/m 0,0 km/h (0 Bft) S-SW 202 10,7 C 21,2 C
11.06.2012 10:46 21,2 C 50 % 1006,3 hPa 0,0 l/m 1,8 km/h (1 Bft) S-SO 157 10,4 C 21,2 C
11.06.2012 10:51 21,2 C 50 % 1006,3 hPa 0,0 l/m 3,6 km/h (1 Bft) SO 135 10,4 C 21,2 C
11.06.2012 10:56 21,1 C 50 % 1006,3 hPa 0,0 l/m 2,9 km/h (1 Bft) S-SW 202 10,3 C 21,1 C
11.06.2012 11:01 21,1 C 51 % 1006,2 hPa 0,0 l/m 0,0 km/h (0 Bft) W-NW 292 10,6 C 21,1 C
11.06.2012 11:06 21,3 C 50 % 1006,2 hPa 0,0 l/m 3,6 km/h (1 Bft) S 180 10,4 C 21,3 C
11.06.2012 11:11 21,3 C 49 % 1006,3 hPa 0,0 l/m 1,4 km/h (1 Bft) SO 135 10,1 C 21,3 C
11.06.2012 11:16 21,2 C 49 % 1006,2 hPa 0,0 l/m 0,0 km/h (0 Bft) S 180 10,1 C 21,2 C
11.06.2012 11:21 21,0 C 49 % 1006,2 hPa 0,0 l/m 0,0 km/h (0 Bft) O-SO 112 9,9 C 21,0 C
11.06.2012 11:26 20,9 C 50 % 1006,1 hPa 0,0 l/m 3,2 km/h (1 Bft) O 90 10,1 C 20,9 C
11.06.2012 11:31 20,8 C 49 % 1006,1 hPa 0,0 l/m 8,3 km/h (2 Bft) O 90 9,7 C 20,8 C
11.06.2012 11:36 20,7 C 49 % 1006,0 hPa 0,0 l/m 2,2 km/h (1 Bft) O 90 9,6 C 20,7 C
11.06.2012 11:41 20,6 C 50 % 1006,0 hPa 0,0 l/m 6,1 km/h (2 Bft) O 90 9,8 C 20,6 C
11.06.2012 11:46 20,5 C 49 % 1006,0 hPa 0,0 l/m 5,4 km/h (1 Bft) O-SO 112 9,4 C 20,5 C
11.06.2012 11:51 20,3 C 49 % 1006,0 hPa 0,0 l/m 6,1 km/h (2 Bft) O-SO 112 9,2 C 20,3 C
11.06.2012 11:56 20,2 C 49 % 1006,1 hPa 0,0 l/m 0,0 km/h (0 Bft) O 90 9,1 C 20,2 C
11.06.2012 12:01 20,2 C 49 % 1006,0 hPa 0,0 l/m 1,8 km/h (1 Bft) O 90 9,1 C 20,2 C
11.06.2012 12:06 20,2 C 49 % 1005,9 hPa 0,0 l/m 0,0 km/h (0 Bft) O 90 9,1 C 20,2 C
11.06.2012 12:11 20,2 C 49 % 1005,9 hPa 0,0 l/m 3,6 km/h (1 Bft) O 90 9,1 C 20,2 C
11.06.2012 12:16 20,2 C 49 % 1005,8 hPa 0,0 l/m 2,2 km/h (1 Bft) O 90 9,1 C 20,2 C
11.06.2012 12:21 20,4 C 49 % 1005,7 hPa 0,0 l/m 0,0 km/h (0 Bft) O-SO 112 9,3 C 20,4 C
11.06.2012 12:26 20,8 C 48 % 1005,7 hPa 0,0 l/m 5,0 km/h (1 Bft) O 90 9,4 C 20,8 C
11.06.2012 12:31 20,9 C 47 % 1005,6 hPa 0,0 l/m 3,2 km/h (1 Bft) O-NO 67 9,2 C 20,9 C
11.06.2012 12:36 21,2 C 47 % 1005,5 hPa 0,0 l/m 2,9 km/h (1 Bft) O-NO 67 9,4 C 21,2 C
11.06.2012 12:41 21,2 C 46 % 1005,4 hPa 0,0 l/m 5,4 km/h (1 Bft) N-NO 22 9,1 C 21,2 C
11.06.2012 12:46 21,0 C 46 % 1005,5 hPa 0,0 l/m 4,7 km/h (1 Bft) NO 45 8,9 C 21,0 C
11.06.2012 12:51 20,9 C 46 % 1005,4 hPa 0,0 l/m 2,9 km/h (1 Bft) O-SO 112 8,8 C 20,9 C
11.06.2012 12:56 20,9 C 46 % 1005,4 hPa 0,0 l/m 1,1 km/h (1 Bft) O 90 8,8 C 20,9 C
11.06.2012 13:01 20,9 C 46 % 1005,5 hPa 0,0 l/m 3,2 km/h (1 Bft) O-SO 112 8,8 C 20,9 C
11.06.2012 13:06 20,9 C 47 % 1005,4 hPa 0,0 l/m 5,4 km/h (1 Bft) O 90 9,2 C 20,9 C
11.06.2012 13:11 20,9 C 47 % 1005,3 hPa 0,0 l/m 1,4 km/h (1 Bft) O 90 9,2 C 20,9 C
11.06.2012 13:16 20,9 C 47 % 1005,3 hPa 0,0 l/m 1,8 km/h (1 Bft) O 90 9,2 C 20,9 C
11.06.2012 13:21 20,9 C 46 % 1005,3 hPa 0,0 l/m 4,7 km/h (1 Bft) O 90 8,8 C 20,9 C
11.06.2012 13:26 20,9 C 45 % 1005,3 hPa 0,0 l/m 3,2 km/h (1 Bft) NO 45 8,5 C 20,9 C
11.06.2012 13:31 20,8 C 45 % 1005,1 hPa 0,0 l/m 1,4 km/h (1 Bft) NO 45 8,4 C 20,8 C
11.06.2012 13:36 20,6 C 45 % 1005,1 hPa 0,0 l/m 3,2 km/h (1 Bft) O 90 8,2 C 20,6 C
11.06.2012 13:41 20,5 C 46 % 1005,1 hPa 0,0 l/m 4,0 km/h (1 Bft) NO 45 8,5 C 20,5 C
11.06.2012 13:46 20,5 C 46 % 1005,3 hPa 0,0 l/m 0,0 km/h (0 Bft) N-NO 22 8,5 C 20,5 C
11.06.2012 13:51 20,4 C 46 % 1005,2 hPa 0,0 l/m 4,7 km/h (1 Bft) O-NO 67 8,4 C 20,4 C
11.06.2012 13:56 20,4 C 46 % 1005,1 hPa 0,0 l/m 2,2 km/h (1 Bft) NO 45 8,4 C 20,4 C
11.06.2012 14:01 20,4 C 46 % 1005,1 hPa 0,0 l/m 0,0 km/h (0 Bft) O 90 8,4 C 20,4 C
11.06.2012 14:06 20,3 C 46 % 1005,1 hPa 0,0 l/m 0,0 km/h (0 Bft) O-SO 112 8,3 C 20,3 C
11.06.2012 14:11 20,4 C 46 % 1005,1 hPa 0,0 l/m 0,0 km/h (0 Bft) O-NO 67 8,4 C 20,4 C
11.06.2012 14:16 20,5 C 47 % 1005,1 hPa 0,0 l/m 2,2 km/h (1 Bft) O 90 8,8 C 20,5 C
11.06.2012 14:21 20,8 C 46 % 1005,0 hPa 0,0 l/m 1,8 km/h (1 Bft) O-SO 112 8,8 C 20,8 C
11.06.2012 14:26 21,0 C 46 % 1004,9 hPa 0,0 l/m 1,4 km/h (1 Bft) O-NO 67 8,9 C 21,0 C
11.06.2012 14:31 21,1 C 46 % 1005,0 hPa 0,0 l/m 7,9 km/h (2 Bft) O 90 9,0 C 21,1 C
11.06.2012 14:36 21,2 C 46 % 1005,0 hPa 0,0 l/m 1,1 km/h (1 Bft) SO 135 9,1 C 21,2 C
11.06.2012 14:41 21,2 C 45 % 1005,0 hPa 0,0 l/m 1,8 km/h (1 Bft) NO 45 8,8 C 21,2 C
11.06.2012 14:46 21,2 C 44 % 1004,9 hPa 0,0 l/m 3,2 km/h (1 Bft) NO 45 8,5 C 21,2 C
11.06.2012 14:51 21,2 C 44 % 1004,9 hPa 0,0 l/m 0,0 km/h (0 Bft) N-NW 337 8,5 C 21,2 C
11.06.2012 14:56 21,4 C 44 % 1004,8 hPa 0,0 l/m 2,9 km/h (1 Bft) SO 135 8,6 C 21,4 C
11.06.2012 15:01 21,4 C 45 % 1004,8 hPa 0,0 l/m 4,7 km/h (1 Bft) O 90 9,0 C 21,4 C
11.06.2012 15:06 21,4 C 44 % 1004,8 hPa 0,0 l/m 1,8 km/h (1 Bft) SW 225 8,6 C 21,4 C
11.06.2012 15:11 21,6 C 44 % 1004,8 hPa 0,0 l/m 0,0 km/h (0 Bft) SO 135 8,8 C 21,6 C
11.06.2012 15:16 21,6 C 44 % 1004,8 hPa 0,0 l/m 1,1 km/h (1 Bft) O-SO 112 8,8 C 21,6 C
11.06.2012 15:21 21,8 C 43 % 1004,7 hPa 0,0 l/m 1,1 km/h (1 Bft) O-NO 67 8,7 C 21,8 C
11.06.2012 15:26 21,9 C 44 % 1004,6 hPa 0,0 l/m 0,0 km/h (0 Bft) O-SO 112 9,1 C 21,9 C
11.06.2012 15:31 22,0 C 43 % 1004,6 hPa 0,0 l/m 1,1 km/h (1 Bft) O-SO 112 8,8 C 22,0 C
11.06.2012 15:36 22,1 C 43 % 1004,6 hPa 0,0 l/m 3,6 km/h (1 Bft) NO 45 8,9 C 22,1 C
11.06.2012 15:41 21,9 C 42 % 1004,5 hPa 0,0 l/m 2,5 km/h (1 Bft) O 90 8,4 C 21,9 C
11.06.2012 15:46 21,8 C 42 % 1004,6 hPa 0,0 l/m 0,0 km/h (0 Bft) S-SO 157 8,3 C 21,8 C
11.06.2012 15:51 21,8 C 42 % 1004,4 hPa 0,0 l/m 6,1 km/h (2 Bft) O 90 8,3 C 21,8 C
11.06.2012 15:56 21,8 C 41 % 1004,5 hPa 0,0 l/m 0,0 km/h (0 Bft) O 90 8,0 C 21,8 C
11.06.2012 16:01 21,8 C 42 % 1004,4 hPa 0,0 l/m 0,0 km/h (0 Bft) O-SO 112 8,3 C 21,8 C
11.06.2012 16:06 21,8 C 42 % 1004,6 hPa 0,0 l/m 2,2 km/h (1 Bft) O-SO 112 8,3 C 21,8 C
11.06.2012 16:11 21,8 C 41 % 1004,5 hPa 0,0 l/m 0,0 km/h (0 Bft) O-SO 112 8,0 C 21,8 C
11.06.2012 16:16 21,7 C 41 % 1004,4 hPa 0,0 l/m 1,4 km/h (1 Bft) O 90 7,9 C 21,7 C
11.06.2012 16:21 21,6 C 42 % 1004,3 hPa 0,0 l/m 2,2 km/h (1 Bft) O-NO 67 8,1 C 21,6 C
11.06.2012 16:26 21,6 C 42 % 1004,4 hPa 0,0 l/m 0,0 km/h (0 Bft) O-NO 67 8,1 C 21,6 C
11.06.2012 16:31 21,6 C 42 % 1004,3 hPa 0,0 l/m 0,0 km/h (0 Bft) O-SO 112 8,1 C 21,6 C
11.06.2012 16:36 21,6 C 42 % 1004,2 hPa 0,0 l/m 4,0 km/h (1 Bft) O-SO 112 8,1 C 21,6 C
11.06.2012 16:41 21,6 C 42 % 1004,4 hPa 0,0 l/m 3,2 km/h (1 Bft) NO 45 8,1 C 21,6 C
11.06.2012 16:46 21,5 C 42 % 1004,2 hPa 0,0 l/m 5,0 km/h (1 Bft) SO 135 8,0 C 21,5 C
11.06.2012 16:51 21,4 C 42 % 1004,2 hPa 0,0 l/m 0,0 km/h (0 Bft) O-SO 112 8,0 C 21,4 C
11.06.2012 16:56 21,4 C 43 % 1004,2 hPa 0,0 l/m 4,0 km/h (1 Bft) O 90 8,3 C 21,4 C
11.06.2012 17:01 21,5 C 43 % 1004,2 hPa 0,0 l/m 0,0 km/h (0 Bft) S-SO 157 8,4 C 21,5 C
11.06.2012 17:06 21,5 C 42 % 1004,1 hPa 0,0 l/m 5,0 km/h (1 Bft) O 90 8,0 C 21,5 C
11.06.2012 17:11 21,5 C 42 % 1004,1 hPa 0,0 l/m 0,0 km/h (0 Bft) O-NO 67 8,0 C 21,5 C
11.06.2012 17:16 21,5 C 43 % 1004,2 hPa 0,0 l/m 4,7 km/h (1 Bft) O 90 8,4 C 21,5 C
11.06.2012 17:21 21,5 C 42 % 1004,0 hPa 0,0 l/m 0,0 km/h (0 Bft) O-NO 67 8,0 C 21,5 C
11.06.2012 17:26 21,4 C 43 % 1004,0 hPa 0,0 l/m 5,0 km/h (1 Bft) NO 45 8,3 C 21,4 C
11.06.2012 17:31 21,4 C 42 % 1004,0 hPa 0,0 l/m 3,6 km/h (1 Bft) O-NO 67 8,0 C 21,4 C
11.06.2012 17:36 21,3 C 43 % 1004,0 hPa 0,0 l/m 1,4 km/h (1 Bft) O 90 8,2 C 21,3 C
11.06.2012 17:41 21,3 C 44 % 1004,0 hPa 0,0 l/m 3,2 km/h (1 Bft) O 90 8,5 C 21,3 C
11.06.2012 17:46 21,3 C 44 % 1004,1 hPa 0,0 l/m 0,0 km/h (0 Bft) O-SO 112 8,5 C 21,3 C
11.06.2012 17:51 21,3 C 44 % 1004,1 hPa 0,0 l/m 5,4 km/h (1 Bft) O-SO 112 8,5 C 21,3 C
11.06.2012 17:56 21,3 C 44 % 1004,1 hPa 0,0 l/m 3,6 km/h (1 Bft) O 90 8,5 C 21,3 C
11.06.2012 18:01 21,3 C 43 % 1004,1 hPa 0,0 l/m 0,0 km/h (0 Bft) O 90 8,2 C 21,3 C
11.06.2012 18:06 21,2 C 44 % 1003,9 hPa 0,0 l/m 2,5 km/h (1 Bft) O-SO 112 8,5 C 21,2 C
11.06.2012 18:11 21,2 C 44 % 1004,1 hPa 0,0 l/m 5,4 km/h (1 Bft) O 90 8,5 C 21,2 C
11.06.2012 18:16 21,0 C 44 % 1004,1 hPa 0,0 l/m 5,0 km/h (1 Bft) O-SO 112 8,3 C 21,0 C
11.06.2012 18:21 20,9 C 45 % 1003,9 hPa 0,0 l/m 2,2 km/h (1 Bft) O 90 8,5 C 20,9 C
11.06.2012 18:26 20,9 C 45 % 1003,9 hPa 0,0 l/m 2,2 km/h (1 Bft) O 90 8,5 C 20,9 C
11.06.2012 18:31 20,8 C 45 % 1003,9 hPa 0,0 l/m 5,0 km/h (1 Bft) O-NO 67 8,4 C 20,8 C
11.06.2012 18:36 20,7 C 45 % 1003,8 hPa 0,0 l/m 1,4 km/h (1 Bft) O-SO 112 8,3 C 20,7 C
11.06.2012 18:41 20,6 C 46 % 1003,9 hPa 0,0 l/m 3,6 km/h (1 Bft) O 90 8,6 C 20,6 C
11.06.2012 18:46 20,6 C 47 % 1004,0 hPa 0,0 l/m 2,2 km/h (1 Bft) O 90 8,9 C 20,6 C
11.06.2012 18:51 20,5 C 47 % 1004,0 hPa 0,0 l/m 0,0 km/h (0 Bft) O-NO 67 8,8 C 20,5 C
11.06.2012 18:56 20,4 C 47 % 1004,0 hPa 0,0 l/m 0,0 km/h (0 Bft) O 90 8,7 C 20,4 C
11.06.2012 19:01 20,4 C 48 % 1003,8 hPa 0,0 l/m 1,1 km/h (1 Bft) SO 135 9,0 C 20,4 C
11.06.2012 19:06 20,3 C 48 % 1003,8 hPa 0,0 l/m 0,0 km/h (0 Bft) O 90 8,9 C 20,3 C
11.06.2012 19:11 20,2 C 48 % 1003,8 hPa 0,0 l/m 0,0 km/h (0 Bft) O 90 8,8 C 20,2 C
11.06.2012 19:16 20,1 C 49 % 1003,8 hPa 0,0 l/m 2,9 km/h (1 Bft) O 90 9,0 C 20,1 C
11.06.2012 19:21 20,1 C 49 % 1003,8 hPa 0,0 l/m 0,0 km/h (0 Bft) O 90 9,0 C 20,1 C
11.06.2012 19:26 19,9 C 49 % 1003,7 hPa 0,0 l/m 0,0 km/h (0 Bft) O-SO 112 8,9 C 19,9 C
11.06.2012 19:31 19,9 C 49 % 1003,8 hPa 0,0 l/m 0,0 km/h (0 Bft) O-NO 67 8,9 C 19,9 C
11.06.2012 19:36 19,8 C 49 % 1004,0 hPa 0,0 l/m 0,0 km/h (0 Bft) O-NO 67 8,8 C 19,8 C
11.06.2012 19:41 19,8 C 50 % 1003,8 hPa 0,0 l/m 0,0 km/h (0 Bft) O-NO 67 9,1 C 19,8 C
11.06.2012 19:46 19,7 C 50 % 1003,8 hPa 0,0 l/m 1,1 km/h (1 Bft) O 90 9,0 C 19,7 C
11.06.2012 19:51 19,7 C 50 % 1003,7 hPa 0,0 l/m 0,0 km/h (0 Bft) O-NO 67 9,0 C 19,7 C
11.06.2012 19:56 19,6 C 50 % 1003,8 hPa 0,0 l/m 0,0 km/h (0 Bft) O-NO 67 8,9 C 19,6 C
11.06.2012 20:01 19,6 C 50 % 1003,8 hPa 0,0 l/m 0,0 km/h (0 Bft) O-SO 112 8,9 C 19,6 C
11.06.2012 20:06 19,5 C 50 % 1003,9 hPa 0,0 l/m 1,4 km/h (1 Bft) O-SO 112 8,8 C 19,5 C
11.06.2012 20:11 19,5 C 51 % 1003,9 hPa 0,0 l/m 0,0 km/h (0 Bft) O-NO 67 9,1 C 19,5 C
11.06.2012 20:16 19,4 C 51 % 1003,7 hPa 0,0 l/m 1,4 km/h (1 Bft) O 90 9,0 C 19,4 C
11.06.2012 20:21 19,3 C 51 % 1004,0 hPa 0,0 l/m 2,2 km/h (1 Bft) O-NO 67 8,9 C 19,3 C
11.06.2012 20:26 19,3 C 51 % 1003,8 hPa 0,0 l/m 0,0 km/h (0 Bft) NO 45 8,9 C 19,3 C
11.06.2012 20:31 19,1 C 51 % 1004,0 hPa 0,0 l/m 0,0 km/h (0 Bft) O-NO 67 8,7 C 19,1 C
11.06.2012 20:36 19,1 C 52 % 1003,8 hPa 0,0 l/m 0,0 km/h (0 Bft) O-NO 67 9,0 C 19,1 C
11.06.2012 20:41 19,1 C 52 % 1003,9 hPa 0,0 l/m 2,9 km/h (1 Bft) O-NO 67 9,0 C 19,1 C
11.06.2012 20:46 19,0 C 52 % 1003,9 hPa 0,0 l/m 1,8 km/h (1 Bft) O-NO 67 8,9 C 19,0 C
11.06.2012 20:51 18,9 C 53 % 1003,7 hPa 0,0 l/m 0,0 km/h (0 Bft) O-NO 67 9,1 C 18,9 C
11.06.2012 20:56 18,9 C 53 % 1003,8 hPa 0,0 l/m 0,0 km/h (0 Bft) O-NO 67 9,1 C 18,9 C
11.06.2012 21:01 18,9 C 53 % 1003,8 hPa 0,0 l/m 0,0 km/h (0 Bft) O-NO 67 9,1 C 18,9 C
11.06.2012 21:06 18,8 C 53 % 1003,7 hPa 0,0 l/m 3,2 km/h (1 Bft) O 90 9,0 C 18,8 C
11.06.2012 21:11 18,8 C 53 % 1003,8 hPa 0,0 l/m 2,5 km/h (1 Bft) O 90 9,0 C 18,8 C
11.06.2012 21:16 18,7 C 53 % 1003,9 hPa 0,0 l/m 4,3 km/h (1 Bft) O-NO 67 8,9 C 18,7 C
11.06.2012 21:21 18,6 C 53 % 1003,7 hPa 0,0 l/m 2,9 km/h (1 Bft) O-NO 67 8,8 C 18,6 C
11.06.2012 21:26 18,5 C 54 % 1003,8 hPa 0,0 l/m 2,9 km/h (1 Bft) O 90 9,0 C 18,5 C
11.06.2012 21:31 18,4 C 54 % 1003,8 hPa 0,0 l/m 2,9 km/h (1 Bft) O-NO 67 8,9 C 18,4 C
11.06.2012 21:36 18,4 C 55 % 1003,7 hPa 0,0 l/m 5,0 km/h (1 Bft) O-NO 67 9,2 C 18,4 C
11.06.2012 21:41 18,3 C 55 % 1003,8 hPa 0,0 l/m 3,6 km/h (1 Bft) O-NO 67 9,1 C 18,3 C
11.06.2012 21:46 18,3 C 55 % 1003,8 hPa 0,0 l/m 4,0 km/h (1 Bft) O 90 9,1 C 18,3 C
11.06.2012 21:51 18,2 C 55 % 1003,7 hPa 0,0 l/m 5,0 km/h (1 Bft) O-NO 67 9,0 C 18,2 C
11.06.2012 21:56 18,1 C 55 % 1003,6 hPa 0,0 l/m 0,0 km/h (0 Bft) O-NO 67 8,9 C 18,1 C
11.06.2012 22:01 18,1 C 56 % 1003,6 hPa 0,0 l/m 2,2 km/h (1 Bft) O-NO 67 9,2 C 18,1 C
11.06.2012 22:06 18,1 C 56 % 1003,7 hPa 0,0 l/m 4,0 km/h (1 Bft) O 90 9,2 C 18,1 C
11.06.2012 22:11 18,0 C 56 % 1003,7 hPa 0,0 l/m 4,7 km/h (1 Bft) O-NO 67 9,1 C 18,0 C
11.06.2012 22:16 17,9 C 56 % 1003,8 hPa 0,0 l/m 3,6 km/h (1 Bft) O-NO 67 9,0 C 17,9 C
11.06.2012 22:21 17,9 C 56 % 1003,6 hPa 0,0 l/m 0,0 km/h (0 Bft) O-NO 67 9,0 C 17,9 C
11.06.2012 22:26 17,9 C 56 % 1003,5 hPa 0,0 l/m 4,7 km/h (1 Bft) O-NO 67 9,0 C 17,9 C
11.06.2012 22:31 17,9 C 57 % 1003,5 hPa 0,0 l/m 2,2 km/h (1 Bft) O-NO 67 9,3 C 17,9 C
11.06.2012 22:36 17,8 C 57 % 1003,6 hPa 0,0 l/m 0,0 km/h (0 Bft) O-SO 112 9,2 C 17,8 C
11.06.2012 22:41 17,8 C 57 % 1003,6 hPa 0,0 l/m 2,9 km/h (1 Bft) O-SO 112 9,2 C 17,8 C
11.06.2012 22:46 17,8 C 57 % 1003,7 hPa 0,0 l/m 1,4 km/h (1 Bft) O 90 9,2 C 17,8 C
11.06.2012 22:51 17,7 C 57 % 1003,6 hPa 0,0 l/m 2,5 km/h (1 Bft) O-SO 112 9,1 C 17,7 C
11.06.2012 22:56 17,6 C 58 % 1003,6 hPa 0,0 l/m 1,1 km/h (1 Bft) O-NO 67 9,2 C 17,6 C
11.06.2012 23:01 17,6 C 58 % 1003,6 hPa 0,0 l/m 3,6 km/h (1 Bft) O-SO 112 9,2 C 17,6 C
11.06.2012 23:06 17,5 C 58 % 1003,8 hPa 0,0 l/m 0,0 km/h (0 Bft) S-SO 157 9,1 C 17,5 C
11.06.2012 23:11 17,6 C 58 % 1003,8 hPa 0,0 l/m 0,0 km/h (0 Bft) SO 135 9,2 C 17,6 C
11.06.2012 23:16 17,6 C 59 % 1003,8 hPa 0,0 l/m 4,3 km/h (1 Bft) SO 135 9,5 C 17,6 C
11.06.2012 23:21 17,6 C 60 % 1003,7 hPa 0,0 l/m 2,5 km/h (1 Bft) SO 135 9,7 C 17,6 C
11.06.2012 23:26 17,5 C 60 % 1003,6 hPa 0,0 l/m 1,8 km/h (1 Bft) O 90 9,6 C 17,5 C
11.06.2012 23:31 17,4 C 60 % 1003,4 hPa 0,0 l/m 2,5 km/h (1 Bft) O 90 9,6 C 17,4 C
11.06.2012 23:36 17,4 C 60 % 1003,5 hPa 0,0 l/m 1,8 km/h (1 Bft) O 90 9,6 C 17,4 C
11.06.2012 23:41 17,3 C 60 % 1003,5 hPa 0,0 l/m 4,0 km/h (1 Bft) O 90 9,5 C 17,3 C
11.06.2012 23:46 17,3 C 61 % 1003,5 hPa 0,0 l/m 2,2 km/h (1 Bft) O-NO 67 9,7 C 17,3 C
11.06.2012 23:51 17,2 C 61 % 1003,5 hPa 0,0 l/m 2,5 km/h (1 Bft) O 90 9,6 C 17,2 C
11.06.2012 23:56 17,2 C 61 % 1003,5 hPa 0,0 l/m 4,7 km/h (1 Bft) O-NO 67 9,6 C 17,2 C
_ Min-Zeit 04:26 15:56 23:31 - 00:01 - - 04:21 04:26
Minimum _ 11,9 C 41 % 1003,4 hPa - 0,0 km/h (0 Bft) - - 7,2 C 11,9 C
_ Max-Zeit 15:36 05:51 00:01 00:01 11:31 - - 09:26 15:36
Maximum _ 22,1 C 75 % 1008,7 hPa 0,0 l/m 8,3 km/h
O (2 Bft)
- - 11,1 C 22,1 C
Durchschnitt _ 18,0 C 56 % 1005,8 hPa #0,0 l/m 1,7 km/h (1 Bft) O - 8,9 C 18,0 C
(c) by David Heller